createdAt,value
2022-09-04T00:01:01.587Z,22.77
2022-09-04T00:03:35.566Z,22.80
2022-09-04T00:06:06.541Z,22.79
2022-09-04T00:08:42.484Z,22.79
2022-09-04T00:11:14.874Z,22.80
2022-09-04T00:13:44.170Z,22.76
2022-09-04T00:16:15.380Z,22.71
2022-09-04T00:18:46.256Z,22.65
2022-09-04T00:21:16.854Z,22.60
2022-09-04T00:23:46.212Z,22.53
2022-09-04T00:26:21.213Z,22.43
2022-09-04T00:28:49.989Z,22.34
2022-09-04T00:31:25.906Z,22.25
2022-09-04T00:34:00.749Z,22.15
2022-09-04T00:36:28.784Z,22.06
2022-09-04T00:38:57.937Z,21.97
2022-09-04T00:41:31.076Z,21.89
2022-09-04T00:44:43.389Z,21.84
2022-09-04T00:47:31.080Z,21.78
2022-09-04T00:50:14.779Z,21.79
2022-09-04T00:53:02.666Z,21.80
2022-09-04T00:55:45.545Z,21.78
2022-09-04T00:58:32.005Z,21.79
2022-09-04T01:00:59.998Z,21.80
2022-09-04T01:03:46.482Z,21.82
2022-09-04T01:06:29.538Z,21.89
2022-09-04T01:09:24.757Z,21.92
2022-09-04T01:11:58.062Z,21.86
2022-09-04T01:14:29.895Z,21.89
2022-09-04T01:17:01.020Z,21.87
2022-09-04T01:19:42.096Z,21.81
2022-09-04T01:22:22.811Z,21.76
2022-09-04T01:25:00.349Z,21.73
2022-09-04T01:27:31.597Z,21.70
2022-09-04T01:30:05.376Z,21.68
2022-09-04T01:32:46.078Z,21.63
2022-09-04T01:35:20.666Z,21.61
2022-09-04T01:37:53.840Z,21.59
2022-09-04T01:40:35.702Z,21.58
2022-09-04T01:43:07.497Z,21.54
2022-09-04T01:45:43.473Z,21.59
2022-09-04T01:48:11.462Z,21.60
2022-09-04T01:50:39.352Z,21.57
2022-09-04T01:53:10.863Z,21.61
2022-09-04T01:55:41.857Z,21.61
2022-09-04T01:58:17.653Z,21.64
2022-09-04T02:00:50.782Z,21.68
2022-09-04T02:03:24.213Z,21.68
2022-09-04T02:06:01.853Z,21.73
2022-09-04T02:08:36.530Z,21.76
2022-09-04T02:11:07.675Z,21.73
2022-09-04T02:13:43.739Z,21.81
2022-09-04T02:16:16.127Z,21.83
2022-09-04T02:18:48.969Z,21.89
2022-09-04T02:21:20.817Z,21.91
2022-09-04T02:23:53.818Z,21.96
2022-09-04T02:26:23.563Z,21.96
2022-09-04T02:28:56.840Z,22.01
2022-09-04T02:31:31.407Z,22.03
2022-09-04T02:34:02.747Z,22.06
2022-09-04T02:36:32.119Z,22.09
2022-09-04T02:39:06.302Z,22.12
2022-09-04T02:41:38.828Z,22.13
2022-09-04T02:44:16.432Z,22.16
2022-09-04T02:46:49.718Z,22.19
2022-09-04T02:49:22.102Z,22.23
2022-09-04T02:51:55.865Z,22.24
2022-09-04T02:54:36.613Z,22.28
2022-09-04T02:57:09.316Z,22.31
2022-09-04T02:59:44.269Z,22.35
2022-09-04T03:02:14.732Z,22.42
2022-09-04T03:04:50.166Z,22.44
2022-09-04T03:07:21.958Z,22.43
2022-09-04T03:09:51.481Z,22.52
2022-09-04T03:12:31.139Z,22.59
2022-09-04T03:15:06.896Z,22.64
2022-09-04T03:17:38.094Z,22.66
2022-09-04T03:20:09.977Z,22.71
2022-09-04T03:22:40.788Z,22.76
2022-09-04T03:25:26.428Z,22.80
2022-09-04T03:27:54.397Z,22.89
2022-09-04T03:30:23.928Z,22.96
2022-09-04T03:32:54.452Z,23.02
2022-09-04T03:35:25.781Z,23.01
2022-09-04T03:38:06.469Z,23.10
2022-09-04T03:40:39.222Z,23.07
2022-09-04T03:43:31.107Z,23.14
2022-09-04T03:46:05.241Z,23.14
2022-09-04T03:48:42.961Z,23.15
2022-09-04T03:51:15.519Z,23.08
2022-09-04T03:53:45.578Z,23.07
2022-09-04T03:56:24.556Z,23.03
2022-09-04T03:58:59.043Z,22.96
2022-09-04T04:01:32.053Z,22.92
2022-09-04T04:04:19.425Z,22.87
2022-09-04T04:06:49.673Z,22.86
2022-09-04T04:09:28.030Z,22.81
2022-09-04T04:12:15.098Z,22.78
2022-09-04T04:14:55.656Z,22.55
2022-09-04T04:17:33.560Z,21.86
2022-09-04T04:20:09.389Z,21.48
2022-09-04T04:22:52.544Z,21.08
2022-09-04T04:25:25.954Z,20.77
2022-09-04T04:28:07.195Z,20.56
2022-09-04T04:30:38.305Z,20.41
2022-09-04T04:33:22.913Z,20.32
2022-09-04T04:35:54.791Z,20.25
2022-09-04T04:38:32.932Z,20.13
2022-09-04T04:41:10.113Z,20.05
2022-09-04T04:43:43.673Z,19.97
2022-09-04T04:46:13.972Z,20.05
2022-09-04T04:49:04.388Z,20.05
2022-09-04T04:51:42.774Z,20.01
2022-09-04T04:54:23.386Z,20.04
2022-09-04T04:56:52.481Z,20.09
2022-09-04T04:59:24.577Z,20.14
2022-09-04T05:01:58.931Z,20.19
2022-09-04T05:04:33.213Z,20.25
2022-09-04T05:07:03.133Z,20.32
2022-09-04T05:09:35.779Z,20.39
2022-09-04T05:12:07.569Z,20.45
2022-09-04T05:14:40.941Z,20.52
2022-09-04T05:17:16.106Z,20.57
2022-09-04T05:19:47.989Z,20.59
2022-09-04T05:22:21.551Z,20.58
2022-09-04T05:24:55.961Z,20.63
2022-09-04T05:27:54.124Z,20.65
2022-09-04T05:30:24.345Z,20.61
2022-09-04T05:32:56.868Z,20.64
2022-09-04T05:35:35.249Z,20.60
2022-09-04T05:38:07.399Z,20.61
2022-09-04T05:40:45.209Z,20.64
2022-09-04T05:43:20.521Z,20.64
2022-09-04T05:45:58.311Z,20.63
2022-09-04T05:48:27.177Z,20.68
2022-09-04T05:51:12.938Z,20.68
2022-09-04T05:53:44.683Z,20.66
2022-09-04T05:56:28.990Z,20.63
2022-09-04T05:59:06.652Z,20.63
2022-09-04T06:01:56.225Z,20.57
2022-09-04T06:04:46.419Z,20.56
2022-09-04T06:07:19.037Z,20.54
2022-09-04T06:10:00.961Z,20.58
2022-09-04T06:12:46.322Z,20.58
2022-09-04T06:15:20.403Z,20.65
2022-09-04T06:17:57.179Z,20.67
2022-09-04T06:20:35.353Z,20.71
2022-09-04T06:23:36.975Z,20.73
2022-09-04T06:26:18.852Z,20.75
2022-09-04T06:29:26.989Z,20.78
2022-09-04T06:32:22.251Z,20.78
2022-09-04T06:35:33.084Z,20.80
2022-09-04T06:38:09.262Z,20.81
2022-09-04T06:40:46.170Z,20.86
2022-09-04T06:43:20.284Z,20.90
2022-09-04T06:45:56.763Z,20.89
2022-09-04T06:48:34.709Z,20.98
2022-09-04T06:51:07.816Z,21.03
2022-09-04T06:53:42.566Z,21.09
2022-09-04T06:56:25.041Z,20.94
2022-09-04T06:59:01.533Z,21.15
2022-09-04T07:01:34.635Z,21.17
2022-09-04T07:04:07.465Z,21.17
2022-09-04T07:06:48.297Z,21.18
2022-09-04T07:09:17.646Z,21.21
2022-09-04T07:12:04.673Z,21.17
2022-09-04T07:14:39.013Z,21.22
2022-09-04T07:17:09.818Z,21.20
2022-09-04T07:19:47.234Z,21.21
2022-09-04T07:22:25.025Z,21.15
2022-09-04T07:25:02.183Z,21.17
2022-09-04T07:27:42.066Z,21.16
2022-09-04T07:30:10.451Z,21.13
2022-09-04T07:32:40.404Z,20.90
2022-09-04T07:35:11.017Z,21.13
2022-09-04T07:37:41.996Z,21.12
2022-09-04T07:40:11.440Z,21.18
2022-09-04T07:42:44.227Z,21.21
2022-09-04T07:45:17.208Z,21.22
2022-09-04T07:47:46.187Z,21.24
2022-09-04T07:50:15.935Z,21.21
2022-09-04T07:53:03.014Z,21.25
2022-09-04T07:55:39.178Z,21.21
2022-09-04T07:58:20.400Z,21.25
2022-09-04T08:00:55.595Z,21.31
2022-09-04T08:03:30.563Z,21.43
2022-09-04T08:06:01.221Z,21.47
2022-09-04T08:08:51.761Z,21.47
2022-09-04T08:11:50.730Z,21.47
2022-09-04T08:14:23.721Z,21.44
2022-09-04T08:16:57.780Z,21.38
2022-09-04T08:19:32.068Z,21.41
2022-09-04T08:22:00.070Z,21.41
2022-09-04T08:24:41.325Z,21.42
2022-09-04T08:27:11.892Z,21.41
2022-09-04T08:29:55.000Z,21.39
2022-09-04T08:32:38.338Z,21.38
2022-09-04T08:35:11.231Z,21.42
2022-09-04T08:37:46.020Z,21.50
2022-09-04T08:40:55.276Z,21.59
2022-09-04T08:43:48.006Z,21.69
2022-09-04T08:46:49.430Z,21.79
2022-09-04T08:49:31.020Z,21.85
2022-09-04T08:52:30.336Z,21.89
2022-09-04T08:55:20.495Z,21.89
2022-09-04T08:58:17.197Z,21.94
2022-09-04T09:00:55.693Z,22.02
2022-09-04T09:03:55.410Z,22.12
2022-09-04T09:06:37.215Z,22.18
2022-09-04T09:09:35.242Z,22.26
2022-09-04T09:12:40.865Z,22.45
2022-09-04T09:15:30.029Z,22.58
2022-09-04T09:18:02.848Z,22.69
2022-09-04T09:20:35.627Z,22.82
2022-09-04T09:23:20.601Z,22.97
2022-09-04T09:26:08.737Z,23.10
2022-09-04T09:29:16.341Z,23.24
2022-09-04T09:32:24.089Z,23.33
2022-09-04T09:35:19.548Z,23.48
2022-09-04T09:38:04.522Z,23.65
2022-09-04T09:41:01.301Z,23.94
2022-09-04T09:43:43.859Z,24.24
2022-09-04T09:47:01.761Z,24.59
2022-09-04T09:49:57.931Z,24.82
2022-09-04T09:52:36.095Z,25.03
2022-09-04T09:55:27.997Z,25.27
2022-09-04T09:58:25.990Z,25.49
2022-09-04T10:01:00.364Z,25.63
2022-09-04T10:03:53.072Z,25.82
2022-09-04T10:06:54.073Z,26.10
2022-09-04T10:10:03.286Z,26.35
2022-09-04T10:12:48.595Z,26.54
2022-09-04T10:15:49.750Z,26.74
2022-09-04T10:19:05.840Z,26.86
2022-09-04T10:21:57.156Z,26.90
2022-09-04T10:24:54.845Z,26.75
2022-09-04T10:28:13.469Z,26.64
2022-09-04T10:30:55.462Z,26.63
2022-09-04T10:33:29.405Z,26.69
2022-09-04T10:35:59.289Z,26.72
2022-09-04T10:38:30.852Z,26.77
2022-09-04T10:41:30.325Z,26.82
2022-09-04T10:44:42.440Z,26.83
2022-09-04T10:47:19.028Z,26.85
2022-09-04T10:50:03.111Z,26.93
2022-09-04T10:53:01.236Z,27.16
2022-09-04T10:55:37.702Z,27.36
2022-09-04T10:58:17.385Z,27.57
2022-09-04T11:00:52.344Z,27.67
2022-09-04T11:03:44.354Z,27.96
2022-09-04T11:06:55.508Z,28.16
2022-09-04T11:09:29.021Z,28.28
2022-09-04T11:12:22.268Z,28.43
2022-09-04T11:15:14.829Z,28.48
2022-09-04T11:18:06.735Z,28.52
2022-09-04T11:21:08.032Z,28.64
2022-09-04T11:24:08.425Z,28.67
2022-09-04T11:27:08.037Z,28.68
2022-09-04T11:29:55.194Z,28.70
2022-09-04T11:32:37.372Z,28.80
2022-09-04T11:35:33.924Z,28.89
2022-09-04T11:38:18.567Z,28.94
2022-09-04T11:41:18.712Z,29.00
2022-09-04T11:44:00.171Z,29.01
2022-09-04T11:47:04.129Z,29.19
2022-09-04T11:49:41.832Z,29.29
2022-09-04T11:52:28.267Z,29.48
2022-09-04T11:55:36.247Z,29.60
2022-09-04T11:58:31.200Z,29.49
2022-09-04T12:01:04.062Z,29.36
2022-09-04T12:04:00.136Z,29.25
2022-09-04T12:06:37.527Z,29.09
2022-09-04T12:09:27.412Z,29.27
2022-09-04T12:12:22.729Z,29.25
2022-09-04T12:15:13.762Z,29.25
2022-09-04T12:18:09.715Z,29.57
2022-09-04T12:21:15.744Z,29.99
2022-09-04T12:24:08.275Z,30.28
2022-09-04T12:27:00.134Z,30.42
2022-09-04T12:29:53.825Z,30.49
2022-09-04T12:32:34.816Z,30.25
2022-09-04T12:35:32.172Z,30.00
2022-09-04T12:38:24.963Z,29.85
2022-09-04T12:40:55.575Z,29.89
2022-09-04T12:43:30.501Z,30.18
2022-09-04T12:46:07.672Z,30.27
2022-09-04T12:48:39.130Z,30.28
2022-09-04T12:51:11.812Z,30.49
2022-09-04T12:54:01.848Z,30.89
2022-09-04T12:56:35.745Z,31.12
2022-09-04T12:59:16.174Z,31.25
2022-09-04T13:01:52.707Z,31.34
2022-09-04T13:04:27.475Z,31.28
2022-09-04T13:07:03.092Z,31.20
2022-09-04T13:09:39.684Z,31.25
2022-09-04T13:12:13.528Z,31.30
2022-09-04T13:15:13.569Z,31.38
2022-09-04T13:17:48.347Z,30.98
2022-09-04T13:20:20.941Z,30.45
2022-09-04T13:22:57.871Z,29.88
2022-09-04T13:25:32.329Z,29.49
2022-09-04T13:28:05.233Z,29.14
2022-09-04T13:30:34.413Z,28.87
2022-09-04T13:33:22.288Z,28.80
2022-09-04T13:36:10.699Z,28.63
2022-09-04T13:38:53.579Z,28.46
2022-09-04T13:41:51.639Z,28.31
2022-09-04T13:44:53.615Z,28.07
2022-09-04T13:47:22.895Z,27.78
2022-09-04T13:50:08.567Z,27.50
2022-09-04T13:52:38.054Z,27.33
2022-09-04T13:55:09.886Z,27.11
2022-09-04T13:57:40.232Z,26.93
2022-09-04T14:00:12.022Z,26.76
2022-09-04T14:02:41.916Z,26.60
2022-09-04T14:05:13.360Z,26.42
2022-09-04T14:07:44.809Z,26.42
2022-09-04T14:10:15.690Z,26.41
2022-09-04T14:12:54.161Z,26.41
2022-09-04T14:15:32.888Z,26.43
2022-09-04T14:18:13.555Z,26.50
2022-09-04T14:20:47.723Z,26.55
2022-09-04T14:23:21.763Z,26.53
2022-09-04T14:25:53.456Z,26.58
2022-09-04T14:28:23.589Z,26.68
2022-09-04T14:30:58.843Z,26.75
2022-09-04T14:33:35.507Z,26.71
2022-09-04T14:36:11.650Z,26.72
2022-09-04T14:38:49.071Z,26.93
2022-09-04T14:41:36.405Z,27.23
2022-09-04T14:44:12.879Z,27.61
2022-09-04T14:46:46.549Z,27.96
2022-09-04T14:49:19.256Z,28.17
2022-09-04T14:51:49.281Z,28.14
2022-09-04T14:54:18.350Z,28.00
2022-09-04T14:56:46.948Z,27.64
2022-09-04T14:59:18.477Z,27.36
2022-09-04T15:02:14.876Z,27.21
2022-09-04T15:04:46.770Z,27.16
2022-09-04T15:07:29.779Z,27.19
2022-09-04T15:10:09.648Z,27.39
2022-09-04T15:12:38.617Z,27.72
2022-09-04T15:15:08.545Z,27.81
2022-09-04T15:17:36.604Z,27.73
2022-09-04T15:20:06.301Z,27.53
2022-09-04T15:22:38.159Z,27.25
2022-09-04T15:25:08.974Z,27.01
2022-09-04T15:27:43.636Z,26.77
2022-09-04T15:30:18.315Z,26.56
2022-09-04T15:32:46.354Z,26.38
2022-09-04T15:35:16.706Z,26.27
2022-09-04T15:37:48.434Z,26.10
2022-09-04T15:40:23.004Z,26.03
2022-09-04T15:42:58.721Z,25.86
2022-09-04T15:45:28.357Z,25.82
2022-09-04T15:48:18.827Z,25.70
2022-09-04T15:50:57.905Z,25.59
2022-09-04T15:53:28.191Z,25.49
2022-09-04T15:56:10.337Z,25.45
2022-09-04T15:58:49.294Z,25.37
2022-09-04T16:01:17.933Z,25.23
2022-09-04T16:03:55.136Z,25.21
2022-09-04T16:06:25.437Z,25.19
2022-09-04T16:08:56.846Z,25.15
2022-09-04T16:11:27.465Z,25.21
2022-09-04T16:13:57.786Z,25.22
2022-09-04T16:16:28.017Z,25.24
2022-09-04T16:19:02.600Z,25.27
2022-09-04T16:21:40.772Z,25.29
2022-09-04T16:24:13.545Z,25.32
2022-09-04T16:26:41.485Z,25.34
2022-09-04T16:29:15.433Z,25.34
2022-09-04T16:31:43.421Z,25.37
2022-09-04T16:34:22.196Z,25.36
2022-09-04T16:36:52.102Z,25.34
2022-09-04T16:39:25.871Z,25.39
2022-09-04T16:41:56.570Z,25.40
2022-09-04T16:44:26.869Z,25.42
2022-09-04T16:47:02.863Z,25.42
2022-09-04T16:49:35.225Z,25.54
2022-09-04T16:52:22.111Z,25.65
2022-09-04T16:54:55.391Z,25.67
2022-09-04T16:57:28.077Z,25.64
2022-09-04T16:59:57.409Z,25.58
2022-09-04T17:02:35.691Z,25.54
2022-09-04T17:05:17.603Z,25.50
2022-09-04T17:07:48.290Z,25.39
2022-09-04T17:10:36.555Z,25.31
2022-09-04T17:13:08.231Z,25.16
2022-09-04T17:15:53.507Z,24.97
2022-09-04T17:18:23.288Z,24.84
2022-09-04T17:24:56.361Z,24.74
2022-09-04T17:28:54.267Z,24.66
2022-09-04T17:29:19.067Z,24.56
2022-09-04T17:29:36.277Z,24.44
2022-09-04T17:32:32.195Z,24.31
2022-09-04T17:40:32.842Z,24.20
2022-09-04T17:40:36.303Z,24.06
2022-09-04T17:43:32.966Z,23.91
2022-09-04T17:46:12.774Z,23.89
2022-09-04T17:48:41.728Z,23.90
2022-09-04T17:51:09.645Z,23.91
2022-09-04T17:53:39.384Z,23.91
2022-09-04T17:56:10.918Z,23.90
2022-09-04T17:58:43.493Z,23.87
2022-09-04T18:01:15.337Z,23.87
2022-09-04T18:04:19.901Z,23.85
2022-09-04T18:06:50.956Z,23.87
2022-09-04T18:09:26.630Z,23.85
2022-09-04T18:12:00.946Z,23.80
2022-09-04T18:14:32.689Z,23.70
2022-09-04T18:17:12.786Z,23.57
2022-09-04T18:19:44.302Z,23.41
2022-09-04T18:22:26.963Z,23.29
2022-09-04T18:25:15.761Z,23.18
2022-09-04T18:27:51.166Z,23.11
2022-09-04T18:37:11.052Z,23.06
2022-09-04T18:37:23.855Z,22.97
2022-09-04T18:37:25.321Z,23.00
2022-09-04T18:39:31.167Z,22.90
2022-09-04T18:46:28.857Z,22.87
2022-09-04T18:50:28.926Z,22.75
2022-09-04T18:50:31.329Z,22.77
2022-09-04T18:53:29.765Z,22.73
2022-09-04T18:55:58.939Z,22.73
2022-09-04T18:58:36.886Z,22.72
2022-09-04T19:01:12.422Z,22.70
2022-09-04T19:03:44.615Z,22.70
2022-09-04T19:06:13.807Z,22.70
2022-09-04T19:08:47.291Z,22.69
2022-09-04T19:11:21.122Z,22.63
2022-09-04T19:13:50.497Z,22.62
2022-09-04T19:16:19.885Z,22.62
2022-09-04T19:18:50.689Z,22.59
2022-09-04T19:21:31.942Z,22.57
2022-09-04T19:24:06.753Z,22.52
2022-09-04T19:26:36.757Z,22.47
2022-09-04T19:29:09.968Z,22.47
2022-09-04T19:31:39.797Z,22.46
2022-09-04T19:34:15.310Z,22.44
2022-09-04T19:36:50.739Z,22.44
2022-09-04T19:45:12.555Z,22.43
2022-09-04T19:46:05.991Z,22.41
2022-09-04T19:46:16.449Z,22.39
2022-09-04T19:48:01.670Z,22.34
2022-09-04T19:53:20.030Z,22.36
2022-09-04T19:53:40.541Z,22.31
2022-09-04T19:56:14.284Z,22.29
2022-09-04T19:58:44.394Z,22.25
2022-09-04T20:01:15.858Z,22.23
2022-09-04T20:03:51.235Z,22.25
2022-09-04T20:06:23.442Z,22.20
2022-09-04T20:08:54.148Z,22.13
2022-09-04T20:11:34.581Z,22.10
2022-09-04T20:14:10.229Z,22.11
2022-09-04T20:16:47.930Z,22.11
2022-09-04T20:19:27.496Z,22.07
2022-09-04T20:21:59.835Z,22.09
2022-09-04T20:24:29.954Z,22.08
2022-09-04T20:27:00.265Z,22.12
2022-09-04T20:29:31.123Z,22.11
2022-09-04T20:32:00.988Z,22.08
2022-09-04T20:34:32.855Z,22.06
2022-09-04T20:37:23.648Z,21.92
2022-09-04T20:39:58.250Z,21.79
2022-09-04T20:42:28.637Z,21.73
2022-09-04T20:46:08.405Z,21.68
2022-09-04T20:52:42.866Z,21.68
2022-09-04T20:52:50.062Z,21.60
2022-09-04T20:53:31.657Z,21.61
2022-09-04T20:56:10.715Z,21.61
2022-09-04T21:03:14.627Z,21.58
2022-09-04T21:03:20.357Z,21.53
2022-09-04T21:04:42.406Z,21.49
2022-09-04T21:07:13.770Z,21.43
2022-09-04T21:09:55.048Z,21.40
2022-09-04T21:12:27.976Z,21.37
2022-09-04T21:14:57.457Z,21.37
2022-09-04T21:17:46.373Z,21.37
2022-09-04T21:20:31.552Z,21.37
2022-09-04T21:23:20.227Z,21.32
2022-09-04T21:25:51.919Z,21.34
2022-09-04T21:28:39.561Z,21.37
2022-09-04T21:31:12.678Z,21.39
2022-09-04T21:33:42.697Z,21.37
2022-09-04T21:36:26.921Z,21.41
2022-09-04T21:39:29.780Z,21.46
2022-09-04T21:42:16.901Z,21.48
2022-09-04T21:45:10.412Z,21.50
2022-09-04T21:47:46.516Z,21.46
2022-09-04T21:50:26.714Z,21.50
2022-09-04T21:53:05.693Z,21.51
2022-09-04T22:00:56.284Z,21.53
2022-09-04T22:02:35.907Z,21.58
2022-09-04T22:02:38.110Z,21.60
2022-09-04T22:04:47.346Z,21.65
2022-09-04T22:09:33.059Z,21.67
2022-09-04T22:13:39.709Z,21.69
2022-09-04T22:13:42.849Z,21.72
2022-09-04T22:16:04.786Z,21.70
2022-09-04T22:18:42.600Z,21.78
2022-09-04T22:21:29.867Z,21.82
2022-09-04T22:24:39.681Z,21.85
2022-09-04T22:27:44.133Z,21.85
2022-09-04T22:30:21.186Z,21.89
2022-09-04T22:33:18.541Z,21.86
2022-09-04T22:36:32.101Z,21.94
2022-09-04T22:39:33.380Z,21.93
2022-09-04T22:42:20.305Z,21.97
2022-09-04T22:45:09.349Z,22.00
2022-09-04T22:47:54.293Z,22.06
2022-09-04T22:50:51.072Z,22.09
2022-09-04T22:53:43.764Z,22.10
2022-09-04T22:56:23.979Z,22.07
2022-09-04T22:59:25.907Z,22.10
2022-09-04T23:02:14.053Z,22.12
2022-09-04T23:04:52.727Z,22.12
2022-09-04T23:07:40.298Z,22.16
2022-09-04T23:13:50.839Z,22.14
2022-09-04T23:14:07.493Z,22.06
2022-09-04T23:17:04.269Z,22.06
2022-09-04T23:26:35.091Z,22.05
2022-09-04T23:26:50.914Z,22.07
2022-09-04T23:26:59.277Z,22.08
2022-09-04T23:29:00.209Z,22.08
2022-09-04T23:31:52.057Z,22.11
2022-09-04T23:34:42.597Z,22.12
2022-09-04T23:37:26.544Z,22.11
2022-09-04T23:40:20.771Z,22.11
2022-09-04T23:43:07.708Z,22.05
2022-09-04T23:46:01.732Z,21.99
2022-09-04T23:48:49.574Z,21.95
2022-09-04T23:51:22.187Z,21.93
2022-09-04T23:53:55.007Z,21.91
2022-09-04T23:56:26.138Z,21.85
2022-09-04T23:59:21.066Z,21.82
